sensor_id;sensor_type;location;lat;lon;timestamp;pressure;altitude;pressure_sealevel;temperature;humidity
56042;BME280;48756;41.374;2.066;2023-03-04T00:00:38;101441.25;;;8.56;68.97
56042;BME280;48756;41.374;2.066;2023-03-04T00:03:10;101444.56;;;8.38;68.12
56042;BME280;48756;41.374;2.066;2023-03-04T00:05:36;101446.91;;;8.18;69.62
56042;BME280;48756;41.374;2.066;2023-03-04T00:08:02;101447.59;;;8.07;70.14
56042;BME280;48756;41.374;2.066;2023-03-04T00:10:27;101445.13;;;8.16;69.86
56042;BME280;48756;41.374;2.066;2023-03-04T00:12:52;101450.28;;;8.14;70.11
56042;BME280;48756;41.374;2.066;2023-03-04T00:15:18;101442.25;;;7.93;70.76
56042;BME280;48756;41.374;2.066;2023-03-04T00:17:44;101449.53;;;8.23;69.48
56042;BME280;48756;41.374;2.066;2023-03-04T00:20:10;101441.72;;;8.21;70.03
56042;BME280;48756;41.374;2.066;2023-03-04T00:22:36;101447.16;;;8.38;68.81
56042;BME280;48756;41.374;2.066;2023-03-04T00:25:02;101452.22;;;8.32;69.08
56042;BME280;48756;41.374;2.066;2023-03-04T00:27:28;101452.28;;;8.34;69.97
56042;BME280;48756;41.374;2.066;2023-03-04T00:29:54;101453.72;;;8.13;69.39
56042;BME280;48756;41.374;2.066;2023-03-04T00:32:19;101455.56;;;8.20;69.64
56042;BME280;48756;41.374;2.066;2023-03-04T00:34:45;101459.06;;;8.22;70.20
56042;BME280;48756;41.374;2.066;2023-03-04T00:37:10;101463.38;;;8.22;70.74
56042;BME280;48756;41.374;2.066;2023-03-04T00:39:36;101450.56;;;8.36;69.28
56042;BME280;48756;41.374;2.066;2023-03-04T00:42:01;101457.53;;;8.38;69.17
56042;BME280;48756;41.374;2.066;2023-03-04T00:44:27;101456.78;;;8.48;68.28
56042;BME280;48756;41.374;2.066;2023-03-04T00:46:52;101456.03;;;8.60;68.72
56042;BME280;48756;41.374;2.066;2023-03-04T00:49:18;101455.19;;;8.63;67.85
56042;BME280;48756;41.374;2.066;2023-03-04T00:51:43;101455.19;;;8.63;68.00
56042;BME280;48756;41.374;2.066;2023-03-04T00:54:09;101459.31;;;8.44;70.52
56042;BME280;48756;41.374;2.066;2023-03-04T00:56:34;101455.03;;;8.46;68.25
56042;BME280;48756;41.374;2.066;2023-03-04T00:59:00;101455.09;;;8.53;67.95
56042;BME280;48756;41.374;2.066;2023-03-04T01:01:25;101459.41;;;8.51;67.81
56042;BME280;48756;41.374;2.066;2023-03-04T01:03:50;101456.50;;;8.27;67.31
56042;BME280;48756;41.374;2.066;2023-03-04T01:06:16;101452.94;;;8.17;68.24
56042;BME280;48756;41.374;2.066;2023-03-04T01:08:42;101447.88;;;8.29;67.73
56042;BME280;48756;41.374;2.066;2023-03-04T01:11:07;101447.19;;;8.43;67.40
56042;BME280;48756;41.374;2.066;2023-03-04T01:13:33;101442.69;;;8.29;68.29
56042;BME280;48756;41.374;2.066;2023-03-04T01:15:59;101434.84;;;8.23;67.36
56042;BME280;48756;41.374;2.066;2023-03-04T01:18:24;101439.16;;;8.23;67.22
56042;BME280;48756;41.374;2.066;2023-03-04T01:20:50;101447.00;;;8.30;67.31
56042;BME280;48756;41.374;2.066;2023-03-04T01:23:15;101439.50;;;8.52;66.52
56042;BME280;48756;41.374;2.066;2023-03-04T01:25:41;101430.84;;;8.54;65.26
56042;BME280;48756;41.374;2.066;2023-03-04T01:28:06;101434.41;;;8.63;65.60
56042;BME280;48756;41.374;2.066;2023-03-04T01:30:35;101430.00;;;8.55;65.10
56042;BME280;48756;41.374;2.066;2023-03-04T01:33:01;101423.63;;;8.29;65.80
56042;BME280;48756;41.374;2.066;2023-03-04T01:35:27;101427.06;;;8.25;65.93
56042;BME280;48756;41.374;2.066;2023-03-04T01:37:52;101428.03;;;8.35;65.13
56042;BME280;48756;41.374;2.066;2023-03-04T01:40:18;101429.13;;;8.55;65.78
56042;BME280;48756;41.374;2.066;2023-03-04T01:42:44;101428.16;;;8.44;64.59
56042;BME280;48756;41.374;2.066;2023-03-04T01:45:16;101422.94;;;8.41;64.52
56042;BME280;48756;41.374;2.066;2023-03-04T01:47:47;101416.94;;;8.46;64.04
56042;BME280;48756;41.374;2.066;2023-03-04T01:50:29;101417.28;;;8.03;63.55
56042;BME280;48756;41.374;2.066;2023-03-04T01:52:56;101417.19;;;7.93;64.42
56042;BME280;48756;41.374;2.066;2023-03-04T01:55:24;101412.78;;;7.89;63.65
56042;BME280;48756;41.374;2.066;2023-03-04T01:57:50;101413.50;;;7.78;63.59
56042;BME280;48756;41.374;2.066;2023-03-04T02:00:29;101414.66;;;7.99;61.87
56042;BME280;48756;41.374;2.066;2023-03-04T02:03:05;101410.16;;;7.86;62.60
56042;BME280;48756;41.374;2.066;2023-03-04T02:05:33;101419.72;;;7.90;62.45
56042;BME280;48756;41.374;2.066;2023-03-04T02:08:00;101409.19;;;7.77;62.34
56042;BME280;48756;41.374;2.066;2023-03-04T02:10:27;101410.13;;;7.83;62.10
56042;BME280;48756;41.374;2.066;2023-03-04T02:12:52;101406.63;;;7.81;61.55
56042;BME280;48756;41.374;2.066;2023-03-04T02:15:18;101411.91;;;7.89;61.06
56042;BME280;48756;41.374;2.066;2023-03-04T02:17:44;101404.84;;;7.76;61.21
56042;BME280;48756;41.374;2.066;2023-03-04T02:28:30;101407.03;;;7.47;63.22
56042;BME280;48756;41.374;2.066;2023-03-04T02:30:55;101402.50;;;7.30;63.30
56042;BME280;48756;41.374;2.066;2023-03-04T02:33:23;101402.75;;;7.47;61.77
56042;BME280;48756;41.374;2.066;2023-03-04T02:35:49;101403.47;;;7.40;63.02
56042;BME280;48756;41.374;2.066;2023-03-04T02:38:17;101390.69;;;7.52;63.04
56042;BME280;48756;41.374;2.066;2023-03-04T02:40:46;101390.41;;;7.31;62.90
56042;BME280;48756;41.374;2.066;2023-03-04T02:43:13;101389.56;;;7.32;63.41
56042;BME280;48756;41.374;2.066;2023-03-04T02:45:44;101382.59;;;7.28;63.24
56042;BME280;48756;41.374;2.066;2023-03-04T02:48:10;101379.25;;;7.36;63.01
56042;BME280;48756;41.374;2.066;2023-03-04T02:50:45;101383.50;;;7.31;63.04
56042;BME280;48756;41.374;2.066;2023-03-04T02:53:11;101380.72;;;7.19;63.64
56042;BME280;48756;41.374;2.066;2023-03-04T02:55:37;101376.53;;;7.27;64.23
56042;BME280;48756;41.374;2.066;2023-03-04T02:58:03;101376.25;;;7.07;64.04
56042;BME280;48756;41.374;2.066;2023-03-04T03:00:29;101367.31;;;6.90;65.26
56042;BME280;48756;41.374;2.066;2023-03-04T03:02:55;101370.25;;;7.12;64.40
56042;BME280;48756;41.374;2.066;2023-03-04T03:05:27;101369.41;;;7.14;64.67
56042;BME280;48756;41.374;2.066;2023-03-04T03:07:54;101367.69;;;7.13;64.90
56042;BME280;48756;41.374;2.066;2023-03-04T03:10:19;101363.91;;;6.93;65.18
56042;BME280;48756;41.374;2.066;2023-03-04T03:12:45;101369.09;;;6.93;64.50
56042;BME280;48756;41.374;2.066;2023-03-04T03:15:10;101363.16;;;7.01;64.76
56042;BME280;48756;41.374;2.066;2023-03-04T03:17:36;101365.72;;;6.98;64.97
56042;BME280;48756;41.374;2.066;2023-03-04T03:20:02;101361.22;;;6.87;65.23
56042;BME280;48756;41.374;2.066;2023-03-04T03:22:27;101366.38;;;6.84;65.69
56042;BME280;48756;41.374;2.066;2023-03-04T03:24:53;101362.75;;;6.74;66.12
56042;BME280;48756;41.374;2.066;2023-03-04T03:27:19;101361.81;;;6.69;66.21
56042;BME280;48756;41.374;2.066;2023-03-04T03:29:44;101364.38;;;6.67;66.62
56042;BME280;48756;41.374;2.066;2023-03-04T03:32:10;101365.47;;;6.82;65.47
56042;BME280;48756;41.374;2.066;2023-03-04T03:34:38;101362.75;;;6.75;65.87
56042;BME280;48756;41.374;2.066;2023-03-04T03:37:03;101369.72;;;6.78;66.52
56042;BME280;48756;41.374;2.066;2023-03-04T03:39:29;101369.53;;;6.66;65.56
56042;BME280;48756;41.374;2.066;2023-03-04T03:41:54;101358.47;;;6.78;65.84
56042;BME280;48756;41.374;2.066;2023-03-04T03:44:20;101364.59;;;6.81;65.91
56042;BME280;48756;41.374;2.066;2023-03-04T03:46:45;101356.09;;;6.90;65.01
56042;BME280;48756;41.374;2.066;2023-03-04T03:49:11;101362.75;;;6.74;65.75
56042;BME280;48756;41.374;2.066;2023-03-04T03:51:37;101361.78;;;6.67;66.05
56042;BME280;48756;41.374;2.066;2023-03-04T03:54:03;101361.72;;;6.64;66.77
56042;BME280;48756;41.374;2.066;2023-03-04T03:56:34;101357.81;;;6.89;65.69
56042;BME280;48756;41.374;2.066;2023-03-04T03:59:00;101357.47;;;6.68;66.50
56042;BME280;48756;41.374;2.066;2023-03-04T04:01:25;101349.13;;;6.86;65.54
56042;BME280;48756;41.374;2.066;2023-03-04T04:03:54;101354.28;;;6.84;65.63
56042;BME280;48756;41.374;2.066;2023-03-04T04:06:20;101347.41;;;6.86;66.18
56042;BME280;48756;41.374;2.066;2023-03-04T04:08:46;101356.84;;;6.81;65.75
56042;BME280;48756;41.374;2.066;2023-03-04T04:11:14;101351.84;;;6.95;64.55
56042;BME280;48756;41.374;2.066;2023-03-04T04:13:39;101350.06;;;6.91;64.76
56042;BME280;48756;41.374;2.066;2023-03-04T04:16:05;101348.22;;;6.82;64.59
56042;BME280;48756;41.374;2.066;2023-03-04T04:18:34;101352.56;;;6.85;65.58
56042;BME280;48756;41.374;2.066;2023-03-04T04:20:59;101347.38;;;6.83;65.13
56042;BME280;48756;41.374;2.066;2023-03-04T04:23:25;101342.28;;;6.89;65.08
56042;BME280;48756;41.374;2.066;2023-03-04T04:25:50;101349.09;;;6.83;64.91
56042;BME280;48756;41.374;2.066;2023-03-04T04:28:18;101350.66;;;6.74;65.85
56042;BME280;48756;41.374;2.066;2023-03-04T04:30:44;101349.16;;;6.89;64.59
56042;BME280;48756;41.374;2.066;2023-03-04T04:33:09;101357.59;;;6.77;65.24
56042;BME280;48756;41.374;2.066;2023-03-04T04:35:35;101350.88;;;6.88;65.16
56042;BME280;48756;41.374;2.066;2023-03-04T04:38:03;101359.50;;;6.87;64.65
56042;BME280;48756;41.374;2.066;2023-03-04T04:40:29;101352.53;;;6.82;64.79
56042;BME280;48756;41.374;2.066;2023-03-04T04:42:54;101362.03;;;6.83;64.86
56042;BME280;48756;41.374;2.066;2023-03-04T04:45:21;101357.16;;;7.02;64.20
56042;BME280;48756;41.374;2.066;2023-03-04T04:47:46;101359.50;;;6.87;64.60
56042;BME280;48756;41.374;2.066;2023-03-04T04:50:12;101368.06;;;6.82;64.62
56042;BME280;48756;41.374;2.066;2023-03-04T04:52:37;101364.25;;;6.60;65.84
56042;BME280;48756;41.374;2.066;2023-03-04T04:55:03;101366.09;;;6.67;65.37
56042;BME280;48756;41.374;2.066;2023-03-04T04:57:29;101363.50;;;6.67;66.37
56042;BME280;48756;41.374;2.066;2023-03-04T04:59:54;101368.66;;;6.65;65.96
56042;BME280;48756;41.374;2.066;2023-03-04T05:02:20;101374.78;;;6.70;65.86
56042;BME280;48756;41.374;2.066;2023-03-04T05:04:45;101371.31;;;6.70;65.10
56042;BME280;48756;41.374;2.066;2023-03-04T05:07:11;101380.03;;;6.76;65.96
56042;BME280;48756;41.374;2.066;2023-03-04T05:09:36;101373.94;;;6.71;65.44
56042;BME280;48756;41.374;2.066;2023-03-04T05:12:02;101374.78;;;6.72;65.40
56042;BME280;48756;41.374;2.066;2023-03-04T05:14:28;101385.00;;;6.61;65.60
56042;BME280;48756;41.374;2.066;2023-03-04T05:16:53;101381.13;;;6.38;66.95
56042;BME280;48756;41.374;2.066;2023-03-04T05:19:20;101376.63;;;6.29;67.45
56042;BME280;48756;41.374;2.066;2023-03-04T05:21:45;101382.16;;;6.48;67.60
56042;BME280;48756;41.374;2.066;2023-03-04T05:24:10;101383.31;;;6.65;66.65
56042;BME280;48756;41.374;2.066;2023-03-04T05:26:39;101392.28;;;6.34;66.79
56042;BME280;48756;41.374;2.066;2023-03-04T05:29:04;101394.75;;;6.29;67.83
56042;BME280;48756;41.374;2.066;2023-03-04T05:31:30;101394.06;;;6.38;67.01
56042;BME280;48756;41.374;2.066;2023-03-04T05:33:55;101401.59;;;6.26;68.29
56042;BME280;48756;41.374;2.066;2023-03-04T05:36:21;101403.38;;;6.30;67.62
56042;BME280;48756;41.374;2.066;2023-03-04T05:38:47;101403.81;;;6.07;68.52
56042;BME280;48756;41.374;2.066;2023-03-04T05:41:12;101404.66;;;6.06;68.98
56042;BME280;48756;41.374;2.066;2023-03-04T05:43:38;101412.72;;;6.20;68.77
56042;BME280;48756;41.374;2.066;2023-03-04T05:46:07;101416.16;;;6.21;69.07
56042;BME280;48756;41.374;2.066;2023-03-04T05:48:33;101411.03;;;6.22;69.41
56042;BME280;48756;41.374;2.066;2023-03-04T05:51:00;101405.72;;;6.14;68.88
56042;BME280;48756;41.374;2.066;2023-03-04T05:53:26;101414.06;;;6.01;69.96
56042;BME280;48756;41.374;2.066;2023-03-04T05:55:52;101412.41;;;6.05;69.34
56042;BME280;48756;41.374;2.066;2023-03-04T05:58:18;101416.00;;;6.11;69.55
56042;BME280;48756;41.374;2.066;2023-03-04T06:00:44;101422.94;;;6.12;69.72
56042;BME280;48756;41.374;2.066;2023-03-04T06:03:20;101426.19;;;6.04;69.77
56042;BME280;48756;41.374;2.066;2023-03-04T06:05:49;101425.41;;;6.09;69.54
56042;BME280;48756;41.374;2.066;2023-03-04T06:08:14;101425.69;;;6.22;69.49
56042;BME280;48756;41.374;2.066;2023-03-04T06:10:40;101425.78;;;5.87;71.02
56042;BME280;48756;41.374;2.066;2023-03-04T06:13:06;101430.09;;;6.27;69.84
56042;BME280;48756;41.374;2.066;2023-03-04T06:15:32;101423.38;;;5.93;69.25
56042;BME280;48756;41.374;2.066;2023-03-04T06:17:58;101432.84;;;5.91;70.34
56042;BME280;48756;41.374;2.066;2023-03-04T06:20:23;101430.44;;;6.02;69.42
56042;BME280;48756;41.374;2.066;2023-03-04T06:22:49;101437.88;;;5.88;70.63
56042;BME280;48756;41.374;2.066;2023-03-04T06:25:15;101433.81;;;5.98;69.86
56042;BME280;48756;41.374;2.066;2023-03-04T06:27:40;101441.88;;;5.72;71.23
56042;BME280;48756;41.374;2.066;2023-03-04T06:30:06;101444.06;;;5.92;70.43
56042;BME280;48756;41.374;2.066;2023-03-04T06:32:32;101442.03;;;6.19;68.69
56042;BME280;48756;41.374;2.066;2023-03-04T06:35:00;101448.03;;;6.18;69.97
56042;BME280;48756;41.374;2.066;2023-03-04T06:37:26;101435.88;;;6.14;68.57
56042;BME280;48756;41.374;2.066;2023-03-04T06:39:51;101450.50;;;6.12;68.74
56042;BME280;48756;41.374;2.066;2023-03-04T06:42:17;101454.56;;;6.01;69.64
56042;BME280;48756;41.374;2.066;2023-03-04T06:44:42;101451.50;;;6.19;69.42
56042;BME280;48756;41.374;2.066;2023-03-04T06:47:08;101456.44;;;6.08;69.29
56042;BME280;48756;41.374;2.066;2023-03-04T06:49:33;101463.56;;;6.18;68.73
56042;BME280;48756;41.374;2.066;2023-03-04T06:52:02;101465.44;;;6.27;68.55
56042;BME280;48756;41.374;2.066;2023-03-04T06:54:28;101470.69;;;6.30;69.19
56042;BME280;48756;41.374;2.066;2023-03-04T06:56:53;101474.78;;;6.62;67.37
56042;BME280;48756;41.374;2.066;2023-03-04T06:59:19;101481.28;;;6.42;67.78
56042;BME280;48756;41.374;2.066;2023-03-04T07:01:44;101481.38;;;6.47;67.60
56042;BME280;48756;41.374;2.066;2023-03-04T07:04:12;101484.66;;;6.38;67.55
56042;BME280;48756;41.374;2.066;2023-03-04T07:06:37;101485.84;;;6.55;66.83
56042;BME280;48756;41.374;2.066;2023-03-04T07:09:03;101495.03;;;6.38;67.49
56042;BME280;48756;41.374;2.066;2023-03-04T07:11:28;101492.66;;;6.50;66.85
56042;BME280;48756;41.374;2.066;2023-03-04T07:13:54;101495.13;;;6.44;67.99
56042;BME280;48756;41.374;2.066;2023-03-04T07:16:22;101495.72;;;6.76;66.71
56042;BME280;48756;41.374;2.066;2023-03-04T07:18:47;101500.03;;;6.75;66.42
56042;BME280;48756;41.374;2.066;2023-03-04T07:21:14;101494.13;;;6.81;66.58
56042;BME280;48756;41.374;2.066;2023-03-04T07:23:42;101507.78;;;6.74;65.43
56042;BME280;48756;41.374;2.066;2023-03-04T07:26:08;101503.88;;;6.51;67.19
56042;BME280;48756;41.374;2.066;2023-03-04T07:28:34;101506.56;;;6.55;66.43
56042;BME280;48756;41.374;2.066;2023-03-04T07:31:11;101504.13;;;6.63;66.57
56042;BME280;48756;41.374;2.066;2023-03-04T07:33:36;101494.25;;;6.89;66.10
56042;BME280;48756;41.374;2.066;2023-03-04T07:36:02;101509.75;;;6.86;65.18
56042;BME280;48756;41.374;2.066;2023-03-04T07:38:28;101503.59;;;6.79;65.40
56042;BME280;48756;41.374;2.066;2023-03-04T07:40:57;101511.34;;;6.79;65.52
56042;BME280;48756;41.374;2.066;2023-03-04T07:43:23;101505.94;;;7.17;64.40
56042;BME280;48756;41.374;2.066;2023-03-04T07:45:48;101499.88;;;7.15;64.93
56042;BME280;48756;41.374;2.066;2023-03-04T07:48:14;101505.84;;;7.09;64.47
56042;BME280;48756;41.374;2.066;2023-03-04T07:50:39;101504.00;;;7.03;64.34
56042;BME280;48756;41.374;2.066;2023-03-04T07:53:05;101501.69;;;7.20;64.30
56042;BME280;48756;41.374;2.066;2023-03-04T07:55:30;101507.44;;;7.02;64.44
56042;BME280;48756;41.374;2.066;2023-03-04T07:57:56;101507.56;;;7.10;64.15
56042;BME280;48756;41.374;2.066;2023-03-04T08:00:22;101514.25;;;7.49;63.26
56042;BME280;48756;41.374;2.066;2023-03-04T08:02:48;101508.28;;;7.54;62.97
56042;BME280;48756;41.374;2.066;2023-03-04T08:05:13;101500.31;;;7.42;63.40
56042;BME280;48756;41.374;2.066;2023-03-04T08:07:40;101506.75;;;7.67;62.73
56042;BME280;48756;41.374;2.066;2023-03-04T08:10:06;101493.78;;;7.68;62.39
56042;BME280;48756;41.374;2.066;2023-03-04T08:12:33;101504.03;;;7.59;62.31
56042;BME280;48756;41.374;2.066;2023-03-04T08:14:59;101511.59;;;7.46;63.00
56042;BME280;48756;41.374;2.066;2023-03-04T08:17:24;101505.84;;;7.65;63.10
56042;BME280;48756;41.374;2.066;2023-03-04T08:19:50;101515.47;;;7.71;61.35
56042;BME280;48756;41.374;2.066;2023-03-04T08:22:15;101512.88;;;7.72;62.19
56042;BME280;48756;41.374;2.066;2023-03-04T08:24:41;101508.13;;;8.03;62.17
56042;BME280;48756;41.374;2.066;2023-03-04T08:27:06;101506.00;;;7.74;62.17
56042;BME280;48756;41.374;2.066;2023-03-04T08:29:32;101513.59;;;7.62;62.72
56042;BME280;48756;41.374;2.066;2023-03-04T08:31:57;101510.75;;;8.06;60.68
56042;BME280;48756;41.374;2.066;2023-03-04T08:34:25;101522.56;;;7.84;60.98
56042;BME280;48756;41.374;2.066;2023-03-04T08:36:51;101523.75;;;8.09;60.13
56042;BME280;48756;41.374;2.066;2023-03-04T08:39:17;101509.19;;;8.18;60.87
56042;BME280;48756;41.374;2.066;2023-03-04T08:41:44;101510.38;;;8.42;59.14
56042;BME280;48756;41.374;2.066;2023-03-04T08:44:10;101504.34;;;8.44;59.03
56042;BME280;48756;41.374;2.066;2023-03-04T08:46:37;101512.13;;;8.44;59.27
56042;BME280;48756;41.374;2.066;2023-03-04T08:49:04;101511.28;;;8.45;59.17
56042;BME280;48756;41.374;2.066;2023-03-04T08:51:30;101506.63;;;8.20;59.47
56042;BME280;48756;41.374;2.066;2023-03-04T08:53:55;101500.16;;;8.58;58.83
56042;BME280;48756;41.374;2.066;2023-03-04T08:56:21;101510.50;;;8.52;59.32
56042;BME280;48756;41.374;2.066;2023-03-04T08:58:46;101511.91;;;8.29;59.25
56042;BME280;48756;41.374;2.066;2023-03-04T09:01:13;101500.94;;;8.48;59.48
56042;BME280;48756;41.374;2.066;2023-03-04T09:03:39;101500.28;;;8.69;59.49
56042;BME280;48756;41.374;2.066;2023-03-04T09:06:06;101509.28;;;9.03;57.76
56042;BME280;48756;41.374;2.066;2023-03-04T09:08:32;101511.97;;;9.12;57.31
56042;BME280;48756;41.374;2.066;2023-03-04T09:10:58;101500.84;;;9.29;57.02
56042;BME280;48756;41.374;2.066;2023-03-04T09:13:24;101510.22;;;9.07;56.95
56042;BME280;48756;41.374;2.066;2023-03-04T09:15:51;101492.44;;;9.66;55.41
56042;BME280;48756;41.374;2.066;2023-03-04T09:18:18;101506.06;;;9.29;55.96
56042;BME280;48756;41.374;2.066;2023-03-04T09:20:45;101506.88;;;9.25;55.99
56042;BME280;48756;41.374;2.066;2023-03-04T09:23:11;101508.66;;;9.29;55.93
56042;BME280;48756;41.374;2.066;2023-03-04T09:25:37;101510.44;;;9.37;55.69
56042;BME280;48756;41.374;2.066;2023-03-04T09:28:03;101500.13;;;9.49;55.08
56042;BME280;48756;41.374;2.066;2023-03-04T09:30:29;101488.19;;;9.74;54.73
56042;BME280;48756;41.374;2.066;2023-03-04T09:32:54;101489.06;;;9.76;54.66
56042;BME280;48756;41.374;2.066;2023-03-04T09:35:20;101494.25;;;9.75;53.82
56042;BME280;48756;41.374;2.066;2023-03-04T09:37:46;101506.44;;;9.83;53.40
56042;BME280;48756;41.374;2.066;2023-03-04T09:40:19;101485.75;;;10.16;52.79
56042;BME280;48756;41.374;2.066;2023-03-04T09:42:51;101489.97;;;9.91;52.83
56042;BME280;48756;41.374;2.066;2023-03-04T09:45:20;101489.22;;;10.14;52.95
56042;BME280;48756;41.374;2.066;2023-03-04T09:47:49;101489.31;;;10.27;51.81
56042;BME280;48756;41.374;2.066;2023-03-04T09:50:17;101486.81;;;10.57;51.20
56042;BME280;48756;41.374;2.066;2023-03-04T09:55:39;101486.03;;;11.18;50.29
56042;BME280;48756;41.374;2.066;2023-03-04T09:58:26;101475.59;;;11.18;49.36
56042;BME280;48756;41.374;2.066;2023-03-04T10:01:02;101486.81;;;10.51;50.83
56042;BME280;48756;41.374;2.066;2023-03-04T10:03:47;101475.59;;;10.93;49.65
56042;BME280;48756;41.374;2.066;2023-03-04T10:06:18;101485.16;;;11.29;48.91
56042;BME280;48756;41.374;2.066;2023-03-04T10:08:51;101471.22;;;11.46;48.88
56042;BME280;48756;41.374;2.066;2023-03-04T10:13:56;101465.16;;;11.25;49.27
56042;BME280;48756;41.374;2.066;2023-03-04T10:16:30;101471.16;;;11.73;48.89
56042;BME280;48756;41.374;2.066;2023-03-04T10:19:21;101455.53;;;11.52;49.18
56042;BME280;48756;41.374;2.066;2023-03-04T10:21:51;101453.78;;;11.83;49.03
56042;BME280;48756;41.374;2.066;2023-03-04T10:24:19;101453.69;;;12.06;47.67
56042;BME280;48756;41.374;2.066;2023-03-04T10:26:51;101461.56;;;11.96;47.70
56042;BME280;48756;41.374;2.066;2023-03-04T10:29:20;101452.84;;;12.05;48.16
56042;BME280;48756;41.374;2.066;2023-03-04T10:31:47;101449.25;;;12.26;48.27
56042;BME280;48756;41.374;2.066;2023-03-04T10:34:14;101443.22;;;12.09;47.85
56042;BME280;48756;41.374;2.066;2023-03-04T10:39:24;101450.00;;;12.49;47.08
56042;BME280;48756;41.374;2.066;2023-03-04T10:41:57;101448.41;;;12.24;48.20
56042;BME280;48756;41.374;2.066;2023-03-04T10:44:27;101443.16;;;12.19;47.23
56042;BME280;48756;41.374;2.066;2023-03-04T10:46:55;101447.50;;;12.26;46.94
56042;BME280;48756;41.374;2.066;2023-03-04T10:49:22;101452.56;;;12.57;46.57
56042;BME280;48756;41.374;2.066;2023-03-04T10:54:56;101444.63;;;12.72;45.36
56042;BME280;48756;41.374;2.066;2023-03-04T10:57:32;101440.22;;;12.77;45.85
56042;BME280;48756;41.374;2.066;2023-03-04T11:00:00;101444.59;;;12.77;45.79
56042;BME280;48756;41.374;2.066;2023-03-04T11:02:32;101438.31;;;12.99;45.29
56042;BME280;48756;41.374;2.066;2023-03-04T11:07:43;101430.16;;;13.34;43.92
56042;BME280;48756;41.374;2.066;2023-03-04T11:12:37;101421.88;;;13.75;43.34
56042;BME280;48756;41.374;2.066;2023-03-04T11:15:20;101411.63;;;13.54;43.66
56042;BME280;48756;41.374;2.066;2023-03-04T11:17:56;101416.53;;;13.86;43.26
56042;BME280;48756;41.374;2.066;2023-03-04T11:20:35;101410.19;;;14.05;42.56
56042;BME280;48756;41.374;2.066;2023-03-04T11:23:12;101419.88;;;13.96;42.62
56042;BME280;48756;41.374;2.066;2023-03-04T11:25:47;101410.28;;;13.95;42.68
56042;BME280;48756;41.374;2.066;2023-03-04T11:31:00;101400.28;;;13.55;42.14
56042;BME280;48756;41.374;2.066;2023-03-04T11:33:38;101406.13;;;13.82;42.46
56042;BME280;48756;41.374;2.066;2023-03-04T11:36:25;101396.47;;;14.51;41.63
56042;BME280;48756;41.374;2.066;2023-03-04T11:38:55;101399.13;;;14.47;41.72
56042;BME280;48756;41.374;2.066;2023-03-04T11:41:28;101389.94;;;14.77;41.13
56042;BME280;48756;41.374;2.066;2023-03-04T11:43:57;101378.13;;;15.02;41.29
56042;BME280;48756;41.374;2.066;2023-03-04T11:52:01;101372.31;;;14.85;40.72
56042;BME280;48756;41.374;2.066;2023-03-04T11:54:51;101368.56;;;15.46;39.96
56042;BME280;48756;41.374;2.066;2023-03-04T12:00:30;101366.63;;;14.58;44.01
56042;BME280;48756;41.374;2.066;2023-03-04T12:08:53;101350.66;;;14.72;44.56
56042;BME280;48756;41.374;2.066;2023-03-04T12:14:04;101334.22;;;15.10;43.54
56042;BME280;48756;41.374;2.066;2023-03-04T12:20:01;101335.94;;;15.59;44.21
56042;BME280;48756;41.374;2.066;2023-03-04T12:22:35;101324.06;;;15.38;44.58
56042;BME280;48756;41.374;2.066;2023-03-04T12:36:43;101310.03;;;14.96;45.81
56042;BME280;48756;41.374;2.066;2023-03-04T12:42:29;101295.69;;;15.55;44.71
56042;BME280;48756;41.374;2.066;2023-03-04T12:45:21;101294.94;;;15.50;44.74
56042;BME280;48756;41.374;2.066;2023-03-04T12:48:13;101290.75;;;15.42;45.62
56042;BME280;48756;41.374;2.066;2023-03-04T12:56:25;101282.97;;;15.36;45.71
56042;BME280;48756;41.374;2.066;2023-03-04T12:58:53;101272.97;;;15.11;43.64
56042;BME280;48756;41.374;2.066;2023-03-04T13:01:28;101263.38;;;15.93;43.16
56042;BME280;48756;41.374;2.066;2023-03-04T13:04:38;101268.03;;;15.39;42.54
56042;BME280;48756;41.374;2.066;2023-03-04T13:09:56;101252.97;;;15.89;41.73
56042;BME280;48756;41.374;2.066;2023-03-04T13:12:23;101248.69;;;16.20;41.21
56042;BME280;48756;41.374;2.066;2023-03-04T13:20:23;101250.56;;;15.37;42.97
56042;BME280;48756;41.374;2.066;2023-03-04T13:28:23;101245.94;;;15.49;44.77
56042;BME280;48756;41.374;2.066;2023-03-04T13:53:55;101214.63;;;15.39;43.66
56042;BME280;48756;41.374;2.066;2023-03-04T13:56:22;101212.97;;;15.35;43.93
56042;BME280;48756;41.374;2.066;2023-03-04T13:58:51;101205.63;;;15.50;43.22
56042;BME280;48756;41.374;2.066;2023-03-04T14:01:26;101201.69;;;15.71;43.21
56042;BME280;48756;41.374;2.066;2023-03-04T14:03:53;101207.41;;;15.50;43.86
56042;BME280;48756;41.374;2.066;2023-03-04T14:06:24;101203.72;;;15.58;43.90
56042;BME280;48756;41.374;2.066;2023-03-04T14:08:51;101202.81;;;15.59;44.56
56042;BME280;48756;41.374;2.066;2023-03-04T14:11:33;101195.31;;;15.43;44.13
56042;BME280;48756;41.374;2.066;2023-03-04T14:14:03;101193.50;;;15.45;44.84
56042;BME280;48756;41.374;2.066;2023-03-04T14:16:32;101193.84;;;15.29;45.91
56042;BME280;48756;41.374;2.066;2023-03-04T14:19:05;101184.28;;;15.67;42.14
56042;BME280;48756;41.374;2.066;2023-03-04T14:21:33;101190.59;;;15.58;42.57
56042;BME280;48756;41.374;2.066;2023-03-04T14:24:10;101178.25;;;15.99;43.09
56042;BME280;48756;41.374;2.066;2023-03-04T14:26:37;101182.75;;;15.55;43.17
56042;BME280;48756;41.374;2.066;2023-03-04T14:29:20;101189.63;;;15.22;43.66
56042;BME280;48756;41.374;2.066;2023-03-04T14:31:48;101187.66;;;15.32;44.03
56042;BME280;48756;41.374;2.066;2023-03-04T14:34:16;101181.84;;;15.56;44.37
56042;BME280;48756;41.374;2.066;2023-03-04T14:36:45;101180.38;;;15.83;44.60
56042;BME280;48756;41.374;2.066;2023-03-04T14:39:15;101161.06;;;16.20;43.28
56042;BME280;48756;41.374;2.066;2023-03-04T14:41:42;101164.84;;;16.10;42.45
56042;BME280;48756;41.374;2.066;2023-03-04T14:46:58;101171.53;;;15.49;43.81
56042;BME280;48756;41.374;2.066;2023-03-04T14:49:26;101169.72;;;15.11;44.01